sensor_id;sensor_type;location;lat;lon;timestamp;P1;P2;P0
68116;PMS7003;54909;54.464;18.498;2023-11-21T00:01:11;20;18;13
68116;PMS7003;54909;54.464;18.498;2023-11-21T00:04:18;23;18;14
68116;PMS7003;54909;54.464;18.498;2023-11-21T00:07:20;23;19;11
68116;PMS7003;54909;54.464;18.498;2023-11-21T00:10:22;17;14;11
68116;PMS7003;54909;54.464;18.498;2023-11-21T00:13:29;18;15;12
68116;PMS7003;54909;54.464;18.498;2023-11-21T00:16:31;19;19;13
68116;PMS7003;54909;54.464;18.498;2023-11-21T00:19:32;25;21;12
68116;PMS7003;54909;54.464;18.498;2023-11-21T00:22:40;14;14;11
68116;PMS7003;54909;54.464;18.498;2023-11-21T00:25:43;21;15;12
68116;PMS7003;54909;54.464;18.498;2023-11-21T00:28:44;19;15;11
68116;PMS7003;54909;54.464;18.498;2023-11-21T00:31:51;16;13;10
68116;PMS7003;54909;54.464;18.498;2023-11-21T00:34:52;17;14;11
68116;PMS7003;54909;54.464;18.498;2023-11-21T00:37:55;11;11;8
68116;PMS7003;54909;54.464;18.498;2023-11-21T00:41:01;15;13;7
68116;PMS7003;54909;54.464;18.498;2023-11-21T00:44:03;14;10;8
68116;PMS7003;54909;54.464;18.498;2023-11-21T00:47:06;14;13;11
68116;PMS7003;54909;54.464;18.498;2023-11-21T00:50:12;14;14;10
68116;PMS7003;54909;54.464;18.498;2023-11-21T00:53:14;16;13;8
68116;PMS7003;54909;54.464;18.498;2023-11-21T00:56:16;11;11;10
68116;PMS7003;54909;54.464;18.498;2023-11-21T00:59:23;17;13;10
68116;PMS7003;54909;54.464;18.498;2023-11-21T01:02:26;15;14;11
68116;PMS7003;54909;54.464;18.498;2023-11-21T01:05:27;12;12;9
68116;PMS7003;54909;54.464;18.498;2023-11-21T01:08:35;13;11;10
68116;PMS7003;54909;54.464;18.498;2023-11-21T01:11:37;13;11;7
68116;PMS7003;54909;54.464;18.498;2023-11-21T01:14:39;12;12;10
68116;PMS7003;54909;54.464;18.498;2023-11-21T01:17:44;15;12;10
68116;PMS7003;54909;54.464;18.498;2023-11-21T01:20:45;13;13;8
68116;PMS7003;54909;54.464;18.498;2023-11-21T01:23:47;14;14;10
68116;PMS7003;54909;54.464;18.498;2023-11-21T01:26:55;12;11;7
68116;PMS7003;54909;54.464;18.498;2023-11-21T01:29:56;12;11;9
68116;PMS7003;54909;54.464;18.498;2023-11-21T01:32:57;12;10;7
68116;PMS7003;54909;54.464;18.498;2023-11-21T01:36:05;11;11;7
68116;PMS7003;54909;54.464;18.498;2023-11-21T01:39:07;13;11;8
68116;PMS7003;54909;54.464;18.498;2023-11-21T01:42:11;13;11;6
68116;PMS7003;54909;54.464;18.498;2023-11-21T01:45:15;14;12;8
68116;PMS7003;54909;54.464;18.498;2023-11-21T01:48:16;13;12;8
68116;PMS7003;54909;54.464;18.498;2023-11-21T01:51:19;12;11;8
68116;PMS7003;54909;54.464;18.498;2023-11-21T01:54:25;12;11;8
68116;PMS7003;54909;54.464;18.498;2023-11-21T01:57:31;12;8;7
68116;PMS7003;54909;54.464;18.498;2023-11-21T02:00:32;13;10;6
68116;PMS7003;54909;54.464;18.498;2023-11-21T02:03:36;12;12;9
68116;PMS7003;54909;54.464;18.498;2023-11-21T02:06:37;11;8;7
68116;PMS7003;54909;54.464;18.498;2023-11-21T02:09:39;11;11;7
68116;PMS7003;54909;54.464;18.498;2023-11-21T02:12:47;12;12;8
68116;PMS7003;54909;54.464;18.498;2023-11-21T02:15:48;11;9;8
68116;PMS7003;54909;54.464;18.498;2023-11-21T02:18:54;14;10;7
68116;PMS7003;54909;54.464;18.498;2023-11-21T02:21:57;10;8;6
68116;PMS7003;54909;54.464;18.498;2023-11-21T02:25:06;12;9;7
68116;PMS7003;54909;54.464;18.498;2023-11-21T02:28:08;15;11;7
68116;PMS7003;54909;54.464;18.498;2023-11-21T02:31:15;8;7;5
68116;PMS7003;54909;54.464;18.498;2023-11-21T02:34:17;10;9;7
68116;PMS7003;54909;54.464;18.498;2023-11-21T02:37:19;12;9;6
68116;PMS7003;54909;54.464;18.498;2023-11-21T02:40:20;14;12;7
68116;PMS7003;54909;54.464;18.498;2023-11-21T02:43:22;11;9;7
68116;PMS7003;54909;54.464;18.498;2023-11-21T02:46:23;11;10;7
68116;PMS7003;54909;54.464;18.498;2023-11-21T02:49:28;11;11;7
68116;PMS7003;54909;54.464;18.498;2023-11-21T02:52:29;10;9;8
68116;PMS7003;54909;54.464;18.498;2023-11-21T02:55:33;9;9;7
68116;PMS7003;54909;54.464;18.498;2023-11-21T02:58:40;15;13;9
68116;PMS7003;54909;54.464;18.498;2023-11-21T03:01:46;12;9;7
68116;PMS7003;54909;54.464;18.498;2023-11-21T03:04:47;13;12;7
68116;PMS7003;54909;54.464;18.498;2023-11-21T03:07:49;15;13;8
68116;PMS7003;54909;54.464;18.498;2023-11-21T03:10:51;12;11;8
68116;PMS7003;54909;54.464;18.498;2023-11-21T03:13:52;12;11;8
68116;PMS7003;54909;54.464;18.498;2023-11-21T03:16:59;13;13;9
68116;PMS7003;54909;54.464;18.498;2023-11-21T03:20:01;11;9;7
68116;PMS7003;54909;54.464;18.498;2023-11-21T03:23:04;13;13;10
68116;PMS7003;54909;54.464;18.498;2023-11-21T03:26:12;11;11;8
68116;PMS7003;54909;54.464;18.498;2023-11-21T03:29:14;13;12;8
68116;PMS7003;54909;54.464;18.498;2023-11-21T03:32:15;13;11;8
68116;PMS7003;54909;54.464;18.498;2023-11-21T03:35:19;12;12;8
68116;PMS7003;54909;54.464;18.498;2023-11-21T03:38:21;13;12;8
68116;PMS7003;54909;54.464;18.498;2023-11-21T03:41:23;15;15;10
68116;PMS7003;54909;54.464;18.498;2023-11-21T03:44:29;12;12;9
68116;PMS7003;54909;54.464;18.498;2023-11-21T03:47:30;15;14;10
68116;PMS7003;54909;54.464;18.498;2023-11-21T03:50:32;14;12;9
68116;PMS7003;54909;54.464;18.498;2023-11-21T03:53:40;14;11;9
68116;PMS7003;54909;54.464;18.498;2023-11-21T03:56:42;13;12;8
68116;PMS7003;54909;54.464;18.498;2023-11-21T03:59:43;15;8;6
68116;PMS7003;54909;54.464;18.498;2023-11-21T04:02:50;11;11;8
68116;PMS7003;54909;54.464;18.498;2023-11-21T04:05:52;10;10;8
68116;PMS7003;54909;54.464;18.498;2023-11-21T04:08:53;11;11;8
68116;PMS7003;54909;54.464;18.498;2023-11-21T04:12:00;16;12;10
68116;PMS7003;54909;54.464;18.498;2023-11-21T04:15:02;11;10;7
68116;PMS7003;54909;54.464;18.498;2023-11-21T04:18:03;11;10;7
68116;PMS7003;54909;54.464;18.498;2023-11-21T04:21:11;13;12;10
68116;PMS7003;54909;54.464;18.498;2023-11-21T04:24:12;13;12;9
68116;PMS7003;54909;54.464;18.498;2023-11-21T04:27:13;9;9;8
68116;PMS7003;54909;54.464;18.498;2023-11-21T04:30:21;12;10;7
68116;PMS7003;54909;54.464;18.498;2023-11-21T04:33:22;13;12;7
68116;PMS7003;54909;54.464;18.498;2023-11-21T04:36:26;12;11;8
68116;PMS7003;54909;54.464;18.498;2023-11-21T04:39:32;10;10;7
68116;PMS7003;54909;54.464;18.498;2023-11-21T04:42:34;17;14;7
68116;PMS7003;54909;54.464;18.498;2023-11-21T04:45:39;14;12;8
68116;PMS7003;54909;54.464;18.498;2023-11-21T04:48:42;13;12;7
68116;PMS7003;54909;54.464;18.498;2023-11-21T04:51:44;12;12;10
68116;PMS7003;54909;54.464;18.498;2023-11-21T04:54:45;12;12;8
68116;PMS7003;54909;54.464;18.498;2023-11-21T04:57:52;13;13;9
68116;PMS7003;54909;54.464;18.498;2023-11-21T05:00:54;13;13;8
68116;PMS7003;54909;54.464;18.498;2023-11-21T05:03:55;11;11;8
68116;PMS7003;54909;54.464;18.498;2023-11-21T05:07:02;13;11;8
68116;PMS7003;54909;54.464;18.498;2023-11-21T05:10:07;12;11;7
68116;PMS7003;54909;54.464;18.498;2023-11-21T05:13:12;12;11;8
68116;PMS7003;54909;54.464;18.498;2023-11-21T05:16:17;14;11;10
68116;PMS7003;54909;54.464;18.498;2023-11-21T05:19:19;11;11;7
68116;PMS7003;54909;54.464;18.498;2023-11-21T05:22:22;13;8;6
68116;PMS7003;54909;54.464;18.498;2023-11-21T05:25:24;12;11;9
68116;PMS7003;54909;54.464;18.498;2023-11-21T05:28:25;14;12;9
68116;PMS7003;54909;54.464;18.498;2023-11-21T05:31:27;12;11;9
68116;PMS7003;54909;54.464;18.498;2023-11-21T05:34:34;12;12;10
68116;PMS7003;54909;54.464;18.498;2023-11-21T05:37:35;15;15;11
68116;PMS7003;54909;54.464;18.498;2023-11-21T05:40:36;10;10;6
68116;PMS7003;54909;54.464;18.498;2023-11-21T05:43:43;12;12;9
68116;PMS7003;54909;54.464;18.498;2023-11-21T05:46:45;12;11;8
68116;PMS7003;54909;54.464;18.498;2023-11-21T05:49:46;13;12;7
68116;PMS7003;54909;54.464;18.498;2023-11-21T05:52:53;11;11;8
68116;PMS7003;54909;54.464;18.498;2023-11-21T05:55:54;16;12;8
68116;PMS7003;54909;54.464;18.498;2023-11-21T05:58:56;13;12;9
68116;PMS7003;54909;54.464;18.498;2023-11-21T06:02:03;14;12;10
68116;PMS7003;54909;54.464;18.498;2023-11-21T06:05:06;11;11;8
68116;PMS7003;54909;54.464;18.498;2023-11-21T06:08:08;10;9;7
68116;PMS7003;54909;54.464;18.498;2023-11-21T06:11:12;14;8;7
68116;PMS7003;54909;54.464;18.498;2023-11-21T06:14:14;12;10;7
68116;PMS7003;54909;54.464;18.498;2023-11-21T06:17:18;9;9;7
68116;PMS7003;54909;54.464;18.498;2023-11-21T06:20:23;10;8;7
68116;PMS7003;54909;54.464;18.498;2023-11-21T06:23:24;8;7;5
68116;PMS7003;54909;54.464;18.498;2023-11-21T06:26:26;8;7;6
68116;PMS7003;54909;54.464;18.498;2023-11-21T06:29:33;11;9;7
68116;PMS7003;54909;54.464;18.498;2023-11-21T06:32:34;9;8;6
68116;PMS7003;54909;54.464;18.498;2023-11-21T06:35:37;11;9;7
68116;PMS7003;54909;54.464;18.498;2023-11-21T06:38:43;9;9;6
68116;PMS7003;54909;54.464;18.498;2023-11-21T06:41:46;8;8;6
68116;PMS7003;54909;54.464;18.498;2023-11-21T06:44:47;9;8;7
68116;PMS7003;54909;54.464;18.498;2023-11-21T06:47:52;8;7;6
68116;PMS7003;54909;54.464;18.498;2023-11-21T06:50:53;9;6;5
68116;PMS7003;54909;54.464;18.498;2023-11-21T06:53:55;6;5;4
68116;PMS7003;54909;54.464;18.498;2023-11-21T06:57:02;9;6;4
68116;PMS7003;54909;54.464;18.498;2023-11-21T07:00:04;5;5;4
68116;PMS7003;54909;54.464;18.498;2023-11-21T07:03:09;6;6;5
68116;PMS7003;54909;54.464;18.498;2023-11-21T07:06:11;5;5;5
68116;PMS7003;54909;54.464;18.498;2023-11-21T07:09:12;7;6;5
68116;PMS7003;54909;54.464;18.498;2023-11-21T07:12:14;8;6;5
68116;PMS7003;54909;54.464;18.498;2023-11-21T07:15:21;7;7;5
68116;PMS7003;54909;54.464;18.498;2023-11-21T07:18:23;8;7;6
68116;PMS7003;54909;54.464;18.498;2023-11-21T07:21:24;7;7;6
68116;PMS7003;54909;54.464;18.498;2023-11-21T07:24:31;10;7;5
68116;PMS7003;54909;54.464;18.498;2023-11-21T07:27:33;6;6;6
68116;PMS7003;54909;54.464;18.498;2023-11-21T07:30:37;8;6;5
68116;PMS7003;54909;54.464;18.498;2023-11-21T07:33:40;7;7;6
68116;PMS7003;54909;54.464;18.498;2023-11-21T07:36:47;8;6;5
68116;PMS7003;54909;54.464;18.498;2023-11-21T07:39:48;6;6;5
68116;PMS7003;54909;54.464;18.498;2023-11-21T07:42:50;5;5;5
68116;PMS7003;54909;54.464;18.498;2023-11-21T07:45:51;6;5;4
68116;PMS7003;54909;54.464;18.498;2023-11-21T07:48:52;5;5;5
68116;PMS7003;54909;54.464;18.498;2023-11-21T07:52:00;4;4;4
68116;PMS7003;54909;54.464;18.498;2023-11-21T07:55:01;5;4;3
68116;PMS7003;54909;54.464;18.498;2023-11-21T07:58:04;6;5;4
68116;PMS7003;54909;54.464;18.498;2023-11-21T08:01:10;7;6;5
68116;PMS7003;54909;54.464;18.498;2023-11-21T08:04:12;6;6;5
68116;PMS7003;54909;54.464;18.498;2023-11-21T08:07:13;4;4;4
68116;PMS7003;54909;54.464;18.498;2023-11-21T08:10:19;5;5;4
68116;PMS7003;54909;54.464;18.498;2023-11-21T08:13:22;7;5;4
68116;PMS7003;54909;54.464;18.498;2023-11-21T08:16:25;6;5;4
68116;PMS7003;54909;54.464;18.498;2023-11-21T08:19:29;4;4;4
68116;PMS7003;54909;54.464;18.498;2023-11-21T08:22:30;5;5;4
68116;PMS7003;54909;54.464;18.498;2023-11-21T08:25:32;8;6;5
68116;PMS7003;54909;54.464;18.498;2023-11-21T08:28:38;5;3;3
68116;PMS7003;54909;54.464;18.498;2023-11-21T08:31:41;5;5;3
68116;PMS7003;54909;54.464;18.498;2023-11-21T08:34:42;5;4;4
68116;PMS7003;54909;54.464;18.498;2023-11-21T08:37:48;7;4;4
68116;PMS7003;54909;54.464;18.498;2023-11-21T08:40:51;6;5;4
68116;PMS7003;54909;54.464;18.498;2023-11-21T08:43:53;6;5;4
68116;PMS7003;54909;54.464;18.498;2023-11-21T08:46:57;6;4;3
68116;PMS7003;54909;54.464;18.498;2023-11-21T08:49:59;4;4;3
68116;PMS7003;54909;54.464;18.498;2023-11-21T08:53:00;3;3;3
68116;PMS7003;54909;54.464;18.498;2023-11-21T08:56:07;5;4;3
68116;PMS7003;54909;54.464;18.498;2023-11-21T08:59:13;3;3;3
68116;PMS7003;54909;54.464;18.498;2023-11-21T09:02:17;4;3;3
68116;PMS7003;54909;54.464;18.498;2023-11-21T09:05:19;4;4;4
68116;PMS7003;54909;54.464;18.498;2023-11-21T09:08:21;4;4;3
68116;PMS7003;54909;54.464;18.498;2023-11-21T09:11:23;2;2;2
68116;PMS7003;54909;54.464;18.498;2023-11-21T09:14:30;3;3;2
68116;PMS7003;54909;54.464;18.498;2023-11-21T09:17:32;3;3;3
68116;PMS7003;54909;54.464;18.498;2023-11-21T09:20:37;3;3;3
68116;PMS7003;54909;54.464;18.498;2023-11-21T09:23:39;3;3;2
68116;PMS7003;54909;54.464;18.498;2023-11-21T09:26:40;3;3;2
68116;PMS7003;54909;54.464;18.498;2023-11-21T09:29:42;4;4;3
68116;PMS7003;54909;54.464;18.498;2023-11-21T09:32:45;4;4;4
68116;PMS7003;54909;54.464;18.498;2023-11-21T09:35:47;6;5;3
68116;PMS7003;54909;54.464;18.498;2023-11-21T09:38:51;4;4;3
68116;PMS7003;54909;54.464;18.498;2023-11-21T09:41:57;5;4;3
68116;PMS7003;54909;54.464;18.498;2023-11-21T09:48:20;5;4;3
68116;PMS7003;54909;54.464;18.498;2023-11-21T09:51:22;5;4;4
68116;PMS7003;54909;54.464;18.498;2023-11-21T09:54:39;4;4;4
68116;PMS7003;54909;54.464;18.498;2023-11-21T09:57:41;5;5;4
68116;PMS7003;54909;54.464;18.498;2023-11-21T10:00:43;8;5;4
68116;PMS7003;54909;54.464;18.498;2023-11-21T10:03:48;6;5;4
68116;PMS7003;54909;54.464;18.498;2023-11-21T10:06:50;4;3;3
68116;PMS7003;54909;54.464;18.498;2023-11-21T10:09:53;5;4;3
68116;PMS7003;54909;54.464;18.498;2023-11-21T10:12:59;5;4;3
68116;PMS7003;54909;54.464;18.498;2023-11-21T10:16:07;6;5;4
68116;PMS7003;54909;54.464;18.498;2023-11-21T10:19:12;6;5;4
68116;PMS7003;54909;54.464;18.498;2023-11-21T10:22:17;4;4;3
68116;PMS7003;54909;54.464;18.498;2023-11-21T10:25:20;7;5;5
68116;PMS7003;54909;54.464;18.498;2023-11-21T10:28:21;6;6;5
68116;PMS7003;54909;54.464;18.498;2023-11-21T10:31:22;6;5;4
68116;PMS7003;54909;54.464;18.498;2023-11-21T10:34:27;5;5;4
68116;PMS7003;54909;54.464;18.498;2023-11-21T10:37:28;7;5;4
68116;PMS7003;54909;54.464;18.498;2023-11-21T10:40:30;6;5;4
68116;PMS7003;54909;54.464;18.498;2023-11-21T10:43:31;4;4;3
68116;PMS7003;54909;54.464;18.498;2023-11-21T10:46:32;7;7;4
68116;PMS7003;54909;54.464;18.498;2023-11-21T10:49:36;7;5;4
68116;PMS7003;54909;54.464;18.498;2023-11-21T10:52:41;4;4;4
68116;PMS7003;54909;54.464;18.498;2023-11-21T10:55:47;5;5;4
68116;PMS7003;54909;54.464;18.498;2023-11-21T10:58:49;6;5;4
68116;PMS7003;54909;54.464;18.498;2023-11-21T11:01:52;5;5;3
68116;PMS7003;54909;54.464;18.498;2023-11-21T11:04:55;7;5;4
68116;PMS7003;54909;54.464;18.498;2023-11-21T11:11:10;4;4;3
68116;PMS7003;54909;54.464;18.498;2023-11-21T11:14:12;5;5;4
68116;PMS7003;54909;54.464;18.498;2023-11-21T11:17:14;7;5;5
68116;PMS7003;54909;54.464;18.498;2023-11-21T11:20:17;6;6;4
68116;PMS7003;54909;54.464;18.498;2023-11-21T11:26:37;7;7;5
68116;PMS7003;54909;54.464;18.498;2023-11-21T11:29:50;7;7;6
68116;PMS7003;54909;54.464;18.498;2023-11-21T11:42:33;9;8;7
68116;PMS7003;54909;54.464;18.498;2023-11-21T11:45:34;8;8;5
68116;PMS7003;54909;54.464;18.498;2023-11-21T11:48:42;7;5;4
68116;PMS7003;54909;54.464;18.498;2023-11-21T11:51:45;6;5;5
68116;PMS7003;54909;54.464;18.498;2023-11-21T11:54:47;7;4;4
68116;PMS7003;54909;54.464;18.498;2023-11-21T11:57:50;7;7;6
68116;PMS7003;54909;54.464;18.498;2023-11-21T12:00:55;8;6;5
68116;PMS7003;54909;54.464;18.498;2023-11-21T12:07:20;3;3;3
68116;PMS7003;54909;54.464;18.498;2023-11-21T12:10:25;6;5;4
68116;PMS7003;54909;54.464;18.498;2023-11-21T12:13:28;6;6;5
68116;PMS7003;54909;54.464;18.498;2023-11-21T12:16:32;9;8;5
68116;PMS7003;54909;54.464;18.498;2023-11-21T12:19:33;8;8;6
68116;PMS7003;54909;54.464;18.498;2023-11-21T12:22:34;6;5;4
68116;PMS7003;54909;54.464;18.498;2023-11-21T12:25:36;5;5;3
68116;PMS7003;54909;54.464;18.498;2023-11-21T12:28:40;6;5;4
68116;PMS7003;54909;54.464;18.498;2023-11-21T12:31:41;6;3;3
68116;PMS7003;54909;54.464;18.498;2023-11-21T12:34:43;6;5;4
68116;PMS7003;54909;54.464;18.498;2023-11-21T12:37:45;6;6;5
68116;PMS7003;54909;54.464;18.498;2023-11-21T12:40:47;9;7;6
68116;PMS7003;54909;54.464;18.498;2023-11-21T12:43:49;9;6;5
68116;PMS7003;54909;54.464;18.498;2023-11-21T12:46:52;11;11;7
68116;PMS7003;54909;54.464;18.498;2023-11-21T12:49:53;15;13;10
68116;PMS7003;54909;54.464;18.498;2023-11-21T12:52:58;16;14;10
68116;PMS7003;54909;54.464;18.498;2023-11-21T12:56:06;17;16;10
68116;PMS7003;54909;54.464;18.498;2023-11-21T12:59:09;8;7;6
68116;PMS7003;54909;54.464;18.498;2023-11-21T13:02:14;6;6;5
68116;PMS7003;54909;54.464;18.498;2023-11-21T13:05:23;7;7;5
68116;PMS7003;54909;54.464;18.498;2023-11-21T13:08:26;9;8;7
68116;PMS7003;54909;54.464;18.498;2023-11-21T13:11:33;9;8;7
68116;PMS7003;54909;54.464;18.498;2023-11-21T13:14:37;9;7;6
68116;PMS7003;54909;54.464;18.498;2023-11-21T13:17:49;6;6;5
68116;PMS7003;54909;54.464;18.498;2023-11-21T13:20:52;6;5;4
68116;PMS7003;54909;54.464;18.498;2023-11-21T13:23:56;5;5;4
68116;PMS7003;54909;54.464;18.498;2023-11-21T13:26:58;7;6;5
68116;PMS7003;54909;54.464;18.498;2023-11-21T13:30:00;10;8;8
68116;PMS7003;54909;54.464;18.498;2023-11-21T13:33:01;7;7;5
68116;PMS7003;54909;54.464;18.498;2023-11-21T13:36:08;9;9;8
68116;PMS7003;54909;54.464;18.498;2023-11-21T13:39:10;4;4;4
68116;PMS7003;54909;54.464;18.498;2023-11-21T13:42:17;5;3;3
68116;PMS7003;54909;54.464;18.498;2023-11-21T13:45:21;4;3;3
68116;PMS7003;54909;54.464;18.498;2023-11-21T13:48:24;12;9;7
68116;PMS7003;54909;54.464;18.498;2023-11-21T13:51:36;5;4;3
68116;PMS7003;54909;54.464;18.498;2023-11-21T13:54:51;5;5;4
68116;PMS7003;54909;54.464;18.498;2023-11-21T13:57:56;4;4;4
68116;PMS7003;54909;54.464;18.498;2023-11-21T14:00:59;5;5;4
68116;PMS7003;54909;54.464;18.498;2023-11-21T14:04:06;5;5;4
68116;PMS7003;54909;54.464;18.498;2023-11-21T14:07:20;4;4;3
68116;PMS7003;54909;54.464;18.498;2023-11-21T14:10:35;6;5;5
68116;PMS7003;54909;54.464;18.498;2023-11-21T14:13:57;5;4;3
68116;PMS7003;54909;54.464;18.498;2023-11-21T14:17:00;3;3;3
68116;PMS7003;54909;54.464;18.498;2023-11-21T14:20:07;4;4;3
68116;PMS7003;54909;54.464;18.498;2023-11-21T14:23:21;5;4;3
68116;PMS7003;54909;54.464;18.498;2023-11-21T14:26:23;9;7;4
68116;PMS7003;54909;54.464;18.498;2023-11-21T14:29:25;5;4;4
68116;PMS7003;54909;54.464;18.498;2023-11-21T14:32:30;6;6;5
68116;PMS7003;54909;54.464;18.498;2023-11-21T14:35:32;6;6;5
68116;PMS7003;54909;54.464;18.498;2023-11-21T14:38:34;8;6;5
68116;PMS7003;54909;54.464;18.498;2023-11-21T14:41:37;7;6;5
68116;PMS7003;54909;54.464;18.498;2023-11-21T14:44:40;5;5;4
68116;PMS7003;54909;54.464;18.498;2023-11-21T14:47:43;5;5;4
68116;PMS7003;54909;54.464;18.498;2023-11-21T14:50:56;6;6;6
68116;PMS7003;54909;54.464;18.498;2023-11-21T14:54:08;6;6;5
68116;PMS7003;54909;54.464;18.498;2023-11-21T14:57:12;7;7;6
68116;PMS7003;54909;54.464;18.498;2023-11-21T15:00:20;13;9;7
68116;PMS7003;54909;54.464;18.498;2023-11-21T15:03:33;13;12;8
68116;PMS7003;54909;54.464;18.498;2023-11-21T15:06:45;12;9;7
68116;PMS7003;54909;54.464;18.498;2023-11-21T15:09:48;11;10;8
68116;PMS7003;54909;54.464;18.498;2023-11-21T15:12:53;15;14;11
68116;PMS7003;54909;54.464;18.498;2023-11-21T15:15:54;10;8;8
68116;PMS7003;54909;54.464;18.498;2023-11-21T15:18:56;12;11;7
68116;PMS7003;54909;54.464;18.498;2023-11-21T15:21:58;12;12;9
68116;PMS7003;54909;54.464;18.498;2023-11-21T15:24:59;10;10;10
68116;PMS7003;54909;54.464;18.498;2023-11-21T15:28:10;7;7;6
68116;PMS7003;54909;54.464;18.498;2023-11-21T15:31:12;7;7;6
68116;PMS7003;54909;54.464;18.498;2023-11-21T15:34:17;8;7;6
68116;PMS7003;54909;54.464;18.498;2023-11-21T15:37:18;9;8;7
68116;PMS7003;54909;54.464;18.498;2023-11-21T15:40:20;11;10;7
68116;PMS7003;54909;54.464;18.498;2023-11-21T15:43:21;10;10;8
68116;PMS7003;54909;54.464;18.498;2023-11-21T15:46:22;8;8;6
68116;PMS7003;54909;54.464;18.498;2023-11-21T15:49:24;14;12;8
68116;PMS7003;54909;54.464;18.498;2023-11-21T15:52:30;7;6;5
68116;PMS7003;54909;54.464;18.498;2023-11-21T15:55:33;12;11;7
68116;PMS7003;54909;54.464;18.498;2023-11-21T15:58:41;11;11;8
68116;PMS7003;54909;54.464;18.498;2023-11-21T16:01:43;13;12;9
68116;PMS7003;54909;54.464;18.498;2023-11-21T16:04:48;13;10;7
68116;PMS7003;54909;54.464;18.498;2023-11-21T16:07:50;22;20;12
68116;PMS7003;54909;54.464;18.498;2023-11-21T16:10:51;11;10;7
68116;PMS7003;54909;54.464;18.498;2023-11-21T16:13:52;14;12;8
68116;PMS7003;54909;54.464;18.498;2023-11-21T16:16:54;10;9;8
68116;PMS7003;54909;54.464;18.498;2023-11-21T16:19:58;11;11;9
68116;PMS7003;54909;54.464;18.498;2023-11-21T16:23:00;12;12;9
68116;PMS7003;54909;54.464;18.498;2023-11-21T16:26:02;11;10;7
68116;PMS7003;54909;54.464;18.498;2023-11-21T16:29:08;9;7;5
68116;PMS7003;54909;54.464;18.498;2023-11-21T16:32:12;11;9;5
68116;PMS7003;54909;54.464;18.498;2023-11-21T16:35:13;13;12;7
68116;PMS7003;54909;54.464;18.498;2023-11-21T16:38:19;13;11;9
68116;PMS7003;54909;54.464;18.498;2023-11-21T16:41:20;13;12;9
68116;PMS7003;54909;54.464;18.498;2023-11-21T16:44:22;13;12;9
68116;PMS7003;54909;54.464;18.498;2023-11-21T16:47:30;12;11;9
68116;PMS7003;54909;54.464;18.498;2023-11-21T16:50:33;18;13;9
68116;PMS7003;54909;54.464;18.498;2023-11-21T16:53:34;17;14;11
68116;PMS7003;54909;54.464;18.498;2023-11-21T16:56:40;16;14;11
68116;PMS7003;54909;54.464;18.498;2023-11-21T16:59:43;14;12;10
68116;PMS7003;54909;54.464;18.498;2023-11-21T17:02:50;12;12;9
68116;PMS7003;54909;54.464;18.498;2023-11-21T17:05:51;10;10;8
68116;PMS7003;54909;54.464;18.498;2023-11-21T17:08:53;13;12;9
68116;PMS7003;54909;54.464;18.498;2023-11-21T17:11:56;11;11;7
68116;PMS7003;54909;54.464;18.498;2023-11-21T17:15:01;13;11;10
68116;PMS7003;54909;54.464;18.498;2023-11-21T17:18:04;10;10;7
68116;PMS7003;54909;54.464;18.498;2023-11-21T17:21:06;10;9;6
68116;PMS7003;54909;54.464;18.498;2023-11-21T17:24:12;13;13;10
68116;PMS7003;54909;54.464;18.498;2023-11-21T17:27:14;14;11;9
68116;PMS7003;54909;54.464;18.498;2023-11-21T17:30:16;12;11;10
68116;PMS7003;54909;54.464;18.498;2023-11-21T17:33:22;13;11;9
68116;PMS7003;54909;54.464;18.498;2023-11-21T17:36:23;11;11;9
68116;PMS7003;54909;54.464;18.498;2023-11-21T17:39:25;11;11;9
68116;PMS7003;54909;54.464;18.498;2023-11-21T17:42:33;12;11;9
68116;PMS7003;54909;54.464;18.498;2023-11-21T17:45:35;13;11;9
68116;PMS7003;54909;54.464;18.498;2023-11-21T17:48:36;9;9;7
68116;PMS7003;54909;54.464;18.498;2023-11-21T17:51:43;10;10;7
68116;PMS7003;54909;54.464;18.498;2023-11-21T17:54:44;11;10;8
68116;PMS7003;54909;54.464;18.498;2023-11-21T17:57:45;11;11;9
68116;PMS7003;54909;54.464;18.498;2023-11-21T18:00:53;10;9;7
68116;PMS7003;54909;54.464;18.498;2023-11-21T18:03:54;11;11;9
68116;PMS7003;54909;54.464;18.498;2023-11-21T18:09:02;11;11;7
68116;PMS7003;54909;54.464;18.498;2023-11-21T18:12:05;11;11;8
68116;PMS7003;54909;54.464;18.498;2023-11-21T18:15:12;12;8;5
68116;PMS7003;54909;54.464;18.498;2023-11-21T18:18:14;9;9;6
68116;PMS7003;54909;54.464;18.498;2023-11-21T18:21:16;9;9;6
68116;PMS7003;54909;54.464;18.498;2023-11-21T18:24:21;12;10;8
68116;PMS7003;54909;54.464;18.498;2023-11-21T18:27:23;13;11;9
68116;PMS7003;54909;54.464;18.498;2023-11-21T18:30:30;9;9;7
68116;PMS7003;54909;54.464;18.498;2023-11-21T18:33:31;11;9;6
68116;PMS7003;54909;54.464;18.498;2023-11-21T18:36:32;12;12;9
68116;PMS7003;54909;54.464;18.498;2023-11-21T18:39:34;10;9;6
68116;PMS7003;54909;54.464;18.498;2023-11-21T18:42:40;10;9;7
68116;PMS7003;54909;54.464;18.498;2023-11-21T18:45:44;11;9;7
68116;PMS7003;54909;54.464;18.498;2023-11-21T18:48:45;10;9;7
68116;PMS7003;54909;54.464;18.498;2023-11-21T18:51:51;12;11;8
68116;PMS7003;54909;54.464;18.498;2023-11-21T18:54:53;12;9;6
68116;PMS7003;54909;54.464;18.498;2023-11-21T18:57:54;15;11;7
68116;PMS7003;54909;54.464;18.498;2023-11-21T19:01:02;12;10;8
68116;PMS7003;54909;54.464;18.498;2023-11-21T19:04:04;9;8;6
68116;PMS7003;54909;54.464;18.498;2023-11-21T19:07:05;10;9;6
68116;PMS7003;54909;54.464;18.498;2023-11-21T19:10:11;9;8;6
68116;PMS7003;54909;54.464;18.498;2023-11-21T19:13:13;10;9;8
68116;PMS7003;54909;54.464;18.498;2023-11-21T19:16:14;11;9;6
68116;PMS7003;54909;54.464;18.498;2023-11-21T19:19:21;10;9;6
68116;PMS7003;54909;54.464;18.498;2023-11-21T19:22:23;9;9;6
68116;PMS7003;54909;54.464;18.498;2023-11-21T19:25:24;11;10;6
68116;PMS7003;54909;54.464;18.498;2023-11-21T19:28:32;17;15;10
68116;PMS7003;54909;54.464;18.498;2023-11-21T19:31:33;15;15;9
68116;PMS7003;54909;54.464;18.498;2023-11-21T19:34:34;12;12;9
68116;PMS7003;54909;54.464;18.498;2023-11-21T19:37:42;11;10;9
68116;PMS7003;54909;54.464;18.498;2023-11-21T19:40:44;14;12;9
68116;PMS7003;54909;54.464;18.498;2023-11-21T19:43:45;15;12;9
68116;PMS7003;54909;54.464;18.498;2023-11-21T19:46:53;18;15;10
68116;PMS7003;54909;54.464;18.498;2023-11-21T19:49:56;13;12;9
68116;PMS7003;54909;54.464;18.498;2023-11-21T19:52:57;20;17;12
68116;PMS7003;54909;54.464;18.498;2023-11-21T19:56:04;13;11;8
68116;PMS7003;54909;54.464;18.498;2023-11-21T19:59:10;13;13;10
68116;PMS7003;54909;54.464;18.498;2023-11-21T20:02:11;11;11;7
68116;PMS7003;54909;54.464;18.498;2023-11-21T20:05:14;14;12;10
68116;PMS7003;54909;54.464;18.498;2023-11-21T20:08:15;13;11;8
68116;PMS7003;54909;54.464;18.498;2023-11-21T20:11:20;13;12;9
68116;PMS7003;54909;54.464;18.498;2023-11-21T20:14:25;12;11;8
68116;PMS7003;54909;54.464;18.498;2023-11-21T20:17:31;13;12;8
68116;PMS7003;54909;54.464;18.498;2023-11-21T20:20:32;12;11;8